Toyofukumaru — JD2177 — position and weather

sailwx.info

Track history (hours):
 
Tides and Currents Weather Stations Pressure Air Temp Water Temp Dewpoint Dewpoint Depression Visibility Wind Speed Wind Dir Waves Ship Positions

Toyofukumaru

Last reported at 2014-Nov-19 18:33 UTC. Time now 2014-Nov-22 00:19 UTC.
Position N 34°33' E 134°45'.

Length 165 m; draft 6.2 m.

Type: Cargo ship. MMSI: 431200688.

Date/timePositionNaut miles runAvg speedWind from/ knotsBaromVisibWave heightAir tempDewpointWater temp
2014-Nov-19 18:33N 34°33' E 134°45'1717.0
2014-Nov-19 17:33N 34°34' E 135°05'2019.8
2014-Nov-19 16:33N 34°14' E 134°60'2019.9
2014-Nov-19 15:33N 33°54' E 135°01'  
2014-Nov-15 19:29N 34°33' E 134°44'1819.5
2014-Nov-15 18:33N 34°35' E 135°05'1919.3
2014-Nov-15 17:33N 34°17' E 134°59'1919.4
2014-Nov-15 16:33N 33°58' E 135°00'  
2014-Nov-12 14:04N 34°03' E 132°26'1019.2
2014-Nov-12 13:33N 34°11' E 132°20'9 8.5
2014-Nov-12 12:32N 34°20' E 132°22'0 0.0
2014-Nov-12 11:32N 34°20' E 132°22'1 1.1
2014-Nov-12 10:34N 34°21' E 132°22'0 0.1
2014-Nov-12 09:33N 34°21' E 132°22'0 0.0
2014-Nov-12 08:33N 34°21' E 132°22'0 0.1
2014-Nov-12 07:33N 34°21' E 132°22'  
Track history (hours):
 
Tides and Currents Weather Stations Pressure Air Temp Water Temp Dewpoint Dewpoint Depression Visibility Wind Speed Wind Dir Waves Ship Positions

Toyofukumaru

Last reported at 2014-Nov-19 18:33 UTC. Time now 2014-Nov-22 00:19 UTC.
Position N 34°33' E 134°45'.

Length 165 m; draft 6.2 m.

Type: Cargo ship. MMSI: 431200688.

Date/timePositionNaut miles runAvg speedWind from/ knotsBaromVisibWave heightAir tempDewpointWater temp
2014-Nov-19 18:33N 34°33' E 134°45'1717.0
2014-Nov-19 17:33N 34°34' E 135°05'2019.8
2014-Nov-19 16:33N 34°14' E 134°60'2019.9
2014-Nov-19 15:33N 33°54' E 135°01'  
2014-Nov-15 19:29N 34°33' E 134°44'1819.5
2014-Nov-15 18:33N 34°35' E 135°05'1919.3
2014-Nov-15 17:33N 34°17' E 134°59'1919.4
2014-Nov-15 16:33N 33°58' E 135°00'  
2014-Nov-12 14:04N 34°03' E 132°26'1019.2
2014-Nov-12 13:33N 34°11' E 132°20'9 8.5
2014-Nov-12 12:32N 34°20' E 132°22'0 0.0
2014-Nov-12 11:32N 34°20' E 132°22'1 1.1
2014-Nov-12 10:34N 34°21' E 132°22'0 0.1
2014-Nov-12 09:33N 34°21' E 132°22'0 0.0
2014-Nov-12 08:33N 34°21' E 132°22'0 0.1
2014-Nov-12 07:33N 34°21' E 132°22'  

Dump ship's entire track history